createdAt,value
2022-09-13T00:03:04.014Z,2.35
2022-09-13T00:07:07.590Z,3.13
2022-09-13T00:11:17.399Z,2.28
2022-09-13T00:15:20.935Z,2.30
2022-09-13T00:19:25.725Z,2.42
2022-09-13T00:23:29.144Z,2.30
2022-09-13T00:27:34.263Z,1.60
2022-09-13T00:31:38.025Z,2.63
2022-09-13T00:35:42.413Z,3.22
2022-09-13T00:39:49.617Z,3.35
2022-09-13T00:43:55.346Z,2.30
2022-09-13T00:48:02.974Z,2.35
2022-09-13T00:52:11.414Z,2.50
2022-09-13T00:56:20.896Z,3.90
2022-09-13T01:00:23.995Z,4.18
2022-09-13T01:04:30.570Z,3.95
2022-09-13T01:08:38.717Z,3.92
2022-09-13T01:12:47.698Z,3.13
2022-09-13T01:16:51.737Z,2.70
2022-09-13T01:21:29.361Z,2.75
2022-09-13T01:26:14.043Z,1.98
2022-09-13T01:30:23.495Z,2.58
2022-09-13T01:34:36.180Z,2.85
2022-09-13T01:38:55.462Z,2.15
2022-09-13T01:43:14.561Z,3.72
2022-09-13T01:47:29.381Z,3.22
2022-09-13T01:51:38.705Z,3.65
2022-09-13T01:55:49.254Z,3.30
2022-09-13T01:59:56.157Z,3.00
2022-09-13T02:04:07.756Z,3.08
2022-09-13T02:08:17.186Z,3.15
2022-09-13T02:12:23.565Z,2.67
2022-09-13T02:16:32.806Z,2.33
2022-09-13T02:20:40.451Z,3.67
2022-09-13T02:24:48.018Z,3.13
2022-09-13T02:28:54.190Z,2.72
2022-09-13T02:33:02.648Z,2.67
2022-09-13T02:37:10.318Z,3.17
2022-09-13T02:41:21.011Z,3.38
2022-09-13T02:45:35.588Z,2.60
2022-09-13T02:49:51.726Z,3.00
2022-09-13T02:54:05.568Z,2.22
2022-09-13T02:58:15.565Z,2.22
2022-09-13T03:02:23.826Z,2.85
2022-09-13T03:06:28.952Z,2.83
2022-09-13T03:10:46.590Z,2.10
2022-09-13T03:14:58.651Z,1.50
2022-09-13T03:19:19.587Z,1.70
2022-09-13T03:23:39.663Z,1.77
2022-09-13T03:27:52.725Z,1.90
2022-09-13T03:32:07.446Z,1.85
2022-09-13T03:36:17.115Z,2.33
2022-09-13T03:40:27.309Z,1.98
2022-09-13T03:44:34.171Z,2.35
2022-09-13T03:48:41.123Z,1.88
2022-09-13T03:52:46.591Z,1.92
2022-09-13T03:57:07.947Z,2.85
2022-09-13T04:01:12.944Z,2.38
2022-09-13T04:05:16.654Z,2.15
2022-09-13T04:09:19.615Z,2.63
2022-09-13T04:13:23.522Z,2.17
2022-09-13T04:17:29.224Z,2.67
2022-09-13T04:21:32.455Z,3.47
2022-09-13T04:25:36.007Z,2.92
2022-09-13T04:29:39.254Z,3.15
2022-09-13T04:33:44.398Z,2.63
2022-09-13T04:37:48.573Z,3.05
2022-09-13T04:41:54.711Z,3.63
2022-09-13T04:46:02.835Z,2.80
2022-09-13T04:50:10.620Z,3.78
2022-09-13T04:54:15.996Z,3.72
2022-09-13T04:58:19.928Z,2.55
2022-09-13T05:02:23.529Z,2.63
2022-09-13T05:06:28.779Z,2.78
2022-09-13T05:10:32.310Z,2.72
2022-09-13T05:14:35.923Z,2.42
2022-09-13T05:18:45.152Z,2.72
2022-09-13T05:22:50.374Z,3.13
2022-09-13T05:26:53.828Z,2.95
2022-09-13T05:30:58.511Z,2.67
2022-09-13T05:35:02.016Z,2.78
2022-09-13T05:43:34.419Z,2.20
2022-09-13T05:47:49.991Z,3.63
2022-09-13T05:51:53.423Z,1.60
2022-09-13T05:55:58.101Z,2.28
2022-09-13T06:00:01.681Z,2.47
2022-09-13T06:04:05.354Z,3.17
2022-09-13T06:08:09.172Z,2.55
2022-09-13T06:12:13.627Z,4.60
2022-09-13T06:16:17.827Z,2.90
2022-09-13T06:20:21.428Z,2.60
2022-09-13T06:24:24.498Z,2.70
2022-09-13T06:28:29.254Z,2.45
2022-09-13T06:32:32.824Z,3.13
2022-09-13T06:36:35.808Z,3.50
2022-09-13T06:40:39.557Z,3.35
2022-09-13T06:44:46.493Z,2.92
2022-09-13T06:48:50.227Z,2.42
2022-09-13T06:52:54.143Z,2.58
2022-09-13T06:56:57.384Z,3.65
2022-09-13T07:01:15.734Z,3.83
2022-09-13T07:05:21.332Z,4.38
2022-09-13T07:09:25.207Z,4.38
2022-09-13T07:13:28.723Z,4.95
2022-09-13T07:17:33.583Z,5.30
2022-09-13T07:21:37.037Z,5.03
2022-09-13T07:25:40.512Z,4.43
2022-09-13T07:29:44.697Z,4.13
2022-09-13T07:33:50.309Z,3.72
2022-09-13T07:37:53.978Z,4.63
2022-09-13T07:41:57.064Z,4.35
2022-09-13T07:46:01.993Z,3.78
2022-09-13T07:50:08.263Z,4.38
2022-09-13T07:54:13.887Z,3.25
2022-09-13T07:58:16.954Z,3.42
2022-09-13T08:02:20.487Z,3.83
2022-09-13T08:06:26.340Z,3.67
2022-09-13T08:11:00.355Z,4.05
2022-09-13T08:20:37.375Z,3.38
2022-09-13T08:31:04.222Z,3.45
2022-09-13T08:36:12.520Z,4.22
2022-09-13T08:46:24.040Z,3.40
2022-09-13T08:56:34.991Z,4.07
2022-09-13T09:02:01.209Z,4.03
2022-09-13T09:06:02.694Z,4.28
2022-09-13T09:10:09.029Z,3.80
2022-09-13T09:14:19.095Z,4.35
2022-09-13T09:18:27.261Z,3.20
2022-09-13T09:22:36.534Z,3.00
2022-09-13T09:26:39.904Z,3.30
2022-09-13T09:30:50.668Z,3.42
2022-09-13T09:35:10.114Z,3.53
2022-09-13T09:39:16.569Z,2.40
2022-09-13T09:43:27.574Z,2.53
2022-09-13T09:47:41.741Z,1.95
2022-09-13T09:51:46.752Z,1.80
2022-09-13T09:55:53.944Z,2.17
2022-09-13T10:00:12.806Z,1.73
2022-09-13T10:04:23.398Z,1.52
2022-09-13T10:08:32.747Z,1.67
2022-09-13T10:12:38.649Z,1.65
2022-09-13T10:16:41.697Z,2.00
2022-09-13T10:21:02.283Z,1.80
2022-09-13T10:35:52.779Z,1.20
2022-09-13T10:40:33.266Z,1.63
2022-09-13T10:44:51.825Z,1.45
2022-09-13T10:49:31.318Z,1.92
2022-09-13T10:54:01.655Z,1.80
2022-09-13T10:58:19.217Z,1.85
2022-09-13T11:02:58.860Z,2.13
2022-09-13T11:07:25.468Z,1.75
2022-09-13T11:11:37.722Z,1.45
2022-09-13T11:16:11.759Z,1.30
2022-09-13T11:25:34.888Z,1.27
2022-09-13T11:30:11.530Z,1.60
2022-09-13T11:34:47.846Z,1.50
2022-09-13T11:39:11.434Z,1.10
2022-09-13T11:51:53.829Z,0.75
2022-09-13T11:56:02.694Z,1.50
2022-09-13T12:00:13.363Z,1.38
2022-09-13T12:04:25.617Z,0.90
2022-09-13T12:08:34.964Z,1.02
2022-09-13T12:12:39.526Z,1.05
2022-09-13T12:16:48.946Z,0.80
2022-09-13T12:20:55.285Z,1.02
2022-09-13T12:25:04.052Z,0.80
2022-09-13T12:29:16.686Z,1.08
2022-09-13T12:33:22.734Z,0.80
2022-09-13T12:37:48.124Z,0.68
2022-09-13T12:42:12.160Z,0.63
2022-09-13T12:46:53.196Z,0.77
2022-09-13T12:51:17.799Z,0.80
2022-09-13T12:55:49.677Z,0.63
2022-09-13T13:00:20.145Z,0.82
2022-09-13T13:04:32.619Z,0.70
2022-09-13T13:08:38.296Z,0.80
2022-09-13T13:12:42.899Z,0.65
2022-09-13T13:16:51.710Z,0.70
2022-09-13T13:21:26.931Z,1.00
2022-09-13T13:25:39.295Z,1.02
2022-09-13T13:29:42.886Z,0.90
2022-09-13T13:33:51.657Z,1.10
2022-09-13T13:38:16.197Z,1.05
2022-09-13T13:42:29.719Z,0.75
2022-09-13T13:46:36.442Z,0.70
2022-09-13T13:51:22.112Z,0.93
2022-09-13T13:55:43.629Z,1.02
2022-09-13T13:59:50.842Z,0.93
2022-09-13T14:04:27.113Z,1.05
2022-09-13T14:08:48.455Z,1.17
2022-09-13T14:17:42.192Z,1.40
2022-09-13T14:21:45.685Z,1.20
2022-09-13T14:25:55.981Z,1.20
2022-09-13T14:30:01.189Z,0.93
2022-09-13T14:34:06.069Z,0.90
2022-09-13T14:38:18.234Z,1.30
2022-09-13T14:42:21.834Z,1.20
2022-09-13T14:46:29.894Z,0.80
2022-09-13T14:50:39.062Z,1.25
2022-09-13T14:54:47.084Z,1.10
2022-09-13T14:58:54.634Z,1.17
2022-09-13T15:03:01.353Z,1.15
2022-09-13T15:07:20.388Z,1.63
2022-09-13T15:11:35.806Z,0.85
2022-09-13T15:15:41.353Z,0.95
2022-09-13T15:19:49.987Z,1.02
2022-09-13T15:23:55.013Z,1.00
2022-09-13T15:27:59.968Z,1.50
2022-09-13T15:32:04.157Z,1.20
2022-09-13T15:36:28.714Z,1.08
2022-09-13T15:40:43.973Z,1.38
2022-09-13T15:44:47.477Z,1.10
2022-09-13T15:48:54.369Z,1.15
2022-09-13T15:52:58.579Z,1.10
2022-09-13T15:57:04.125Z,1.10
2022-09-13T16:01:07.977Z,1.10
2022-09-13T16:05:12.132Z,1.00
2022-09-13T16:09:20.489Z,1.33
2022-09-13T16:13:24.966Z,1.63
2022-09-13T16:17:29.572Z,1.38
2022-09-13T16:21:33.227Z,1.30
2022-09-13T16:25:37.820Z,1.13
2022-09-13T16:29:43.628Z,1.20
2022-09-13T16:33:46.624Z,1.45
2022-09-13T16:37:52.334Z,1.17
2022-09-13T16:41:56.164Z,1.55
2022-09-13T16:46:01.116Z,1.42
2022-09-13T16:50:04.836Z,1.75
2022-09-13T16:54:08.436Z,1.50
2022-09-13T16:58:11.509Z,1.40
2022-09-13T17:02:16.802Z,1.73
2022-09-13T17:06:21.000Z,1.40
2022-09-13T17:10:24.792Z,1.83
2022-09-13T17:14:28.358Z,1.60
2022-09-13T17:18:34.045Z,1.23
2022-09-13T17:22:37.841Z,1.05
2022-09-13T17:26:41.460Z,1.35
2022-09-13T17:30:46.317Z,1.75
2022-09-13T17:34:50.852Z,2.55
2022-09-13T17:38:57.844Z,2.10
2022-09-13T17:43:01.255Z,2.25
2022-09-13T17:47:04.758Z,2.28
2022-09-13T17:51:12.416Z,1.90
2022-09-13T17:55:15.709Z,2.28
2022-09-13T17:59:21.159Z,3.40
2022-09-13T18:03:24.852Z,2.42
2022-09-13T18:07:29.195Z,2.20
2022-09-13T18:11:32.625Z,2.17
2022-09-13T18:15:36.261Z,1.83
2022-09-13T18:19:46.413Z,2.20
2022-09-13T18:23:53.390Z,1.75
2022-09-13T18:27:56.800Z,1.90
2022-09-13T18:32:00.672Z,2.85
2022-09-13T18:36:05.977Z,2.15
2022-09-13T18:40:14.506Z,2.15
2022-09-13T18:44:18.899Z,1.88
2022-09-13T18:48:22.521Z,2.22
2022-09-13T18:52:26.246Z,2.67
2022-09-13T18:56:32.894Z,3.00
2022-09-13T19:00:36.822Z,2.53
2022-09-13T19:04:41.051Z,2.42
2022-09-13T19:08:45.086Z,2.38
2022-09-13T19:12:50.259Z,2.42
2022-09-13T19:16:56.503Z,1.67
2022-09-13T19:21:04.046Z,2.40
2022-09-13T19:25:08.601Z,2.58
2022-09-13T19:29:15.497Z,2.15
2022-09-13T19:33:18.447Z,2.03
2022-09-13T19:37:21.909Z,2.47
2022-09-13T19:41:27.512Z,2.30
2022-09-13T19:45:32.606Z,2.70
2022-09-13T19:49:35.832Z,2.35
2022-09-13T19:53:56.382Z,2.50
2022-09-13T19:58:00.941Z,2.25
2022-09-13T20:02:06.701Z,2.13
2022-09-13T20:06:11.796Z,2.25
2022-09-13T20:10:15.500Z,2.25
2022-09-13T20:14:20.916Z,2.95
2022-09-13T20:18:25.873Z,3.13
2022-09-13T20:22:30.021Z,2.83
2022-09-13T20:26:36.472Z,2.55
2022-09-13T20:30:41.699Z,2.50
2022-09-13T20:34:46.684Z,3.40
2022-09-13T20:38:51.744Z,3.10
2022-09-13T20:42:55.322Z,2.53
2022-09-13T20:46:58.929Z,2.88
2022-09-13T20:51:06.445Z,2.65
2022-09-13T20:55:10.816Z,2.40
2022-09-13T20:59:14.264Z,2.60
2022-09-13T21:03:18.345Z,2.67
2022-09-13T21:07:40.490Z,2.40
2022-09-13T21:11:44.100Z,2.27
2022-09-13T21:15:47.288Z,2.17
2022-09-13T21:19:50.685Z,2.95
2022-09-13T21:23:56.814Z,2.65
2022-09-13T21:28:00.230Z,3.50
2022-09-13T21:32:04.656Z,2.88
2022-09-13T21:36:08.921Z,3.05
2022-09-13T21:40:13.991Z,3.50
2022-09-13T21:44:18.421Z,3.28
2022-09-13T21:48:22.246Z,3.63
2022-09-13T21:52:25.907Z,3.17
2022-09-13T21:56:32.697Z,3.10
2022-09-13T22:00:39.402Z,3.20
2022-09-13T22:04:44.087Z,2.95
2022-09-13T22:08:49.561Z,2.55
2022-09-13T22:12:54.600Z,3.17
2022-09-13T22:16:57.790Z,2.92
2022-09-13T22:21:06.319Z,2.67
2022-09-13T22:25:10.458Z,3.42
2022-09-13T22:29:16.292Z,3.72
2022-09-13T22:33:19.811Z,3.63
2022-09-13T22:37:23.421Z,3.53
2022-09-13T22:41:28.604Z,3.42
2022-09-13T22:45:33.753Z,2.65
2022-09-13T22:49:37.036Z,3.05
2022-09-13T22:53:43.103Z,3.70
2022-09-13T22:57:46.597Z,2.90
2022-09-13T23:01:51.174Z,3.42
2022-09-13T23:05:54.741Z,2.97
2022-09-13T23:09:58.430Z,2.88
2022-09-13T23:14:03.709Z,3.10
2022-09-13T23:18:10.217Z,3.67
2022-09-13T23:22:13.806Z,4.07
2022-09-13T23:26:22.962Z,4.75
2022-09-13T23:30:27.165Z,5.10
2022-09-13T23:34:32.043Z,3.75
2022-09-13T23:38:35.202Z,4.97
2022-09-13T23:42:38.589Z,4.50
2022-09-13T23:46:42.485Z,4.93
2022-09-13T23:50:47.267Z,4.93
2022-09-13T23:54:51.447Z,4.32
2022-09-13T23:58:54.559Z,4.15
